Terminal Aerodrome Forecast
Issued by NWS Quad Cities IA IL

Home | Current Version | Previous Version | Text Only | Print | Product List | Glossary On
Versions: 1 2 3 4 5 6 7 8 9 10 11 12 13 14 15 16 17 18 19 20 21 22 23 24 25 26 27
642
FTUS43 KDVN 301430 AAA
TAFMLI
TAF AMD
KMLI 301430Z 3015/0112 06016KT 5SM BR OVC007
      TEMPO 3015/3017 2SM -RA BR
     FM301900 06016G23KT 4SM SHRA BR OVC010
      TEMPO 3019/3023 2SM TSRA BR BKN008CB
     FM302300 09014G21KT 5SM -RA BR BKN008
     FM010300 12010KT 4SM BR OVC050
     FM010600 21008KT P6SM BKN025=

USA.gov is the U.S. government's official web portal to all federal, state and local government web resources and services.